Atlantic - Newfoundland: Past 24 Hour Conditions

 

Natashquan Airport

10:00 AM EDT 28 July 2014
This table is a summary of hourly weather conditions for the past 24 hours.
Date / Time
(EDT)
Wind(knots) Conditions Visibility(km) Pressure(kPa) Air tempC) Relative humidity(%) Dew pointC) Humidex
28 July 2014
10:00 SSE 15 gust 21 Light Rain 10 101.2 18 94 17 *
9:00 SE 12 gust 17 Light Rain 5 101.2 17 95 16 *
8:00 SSE 10 gust 18 Cloudy 15 101.2 18 93 16 *
7:00 SSE 14 gust 19 Cloudy 15 101.1 18 92 16 *
6:00 SSE 13 Light Rain 8 101.1 17 95 17 *
5:00 SSE 14 Light Rain 8 101.0 17 95 17 *
4:00 SSE 12 gust 17 Cloudy 15 101.0 17 92 16 *
3:00 SE 13 gust 19 Cloudy 16 101.0 18 92 16 *
2:00 SSE 10 gust 15 Cloudy 16 101.0 18 93 17 *
1:00 SSE 13 Mostly Cloudy 16 101.0 18 92 17 *
0:00 SSE 11 gust 16 Partly Cloudy 15 101.1 17 93 16 *
27 July 2014
23:00 SE 12 gust 18 Mostly Cloudy 16 101.1 18 91 17 *
22:00 SE 10 gust 15 Clear 15 101.1 17 92 16 *
21:00 SSE 11 gust 16 Clear 16 101.1 18 91 16 *
20:00 SSE 11 Clear 16 101.1 18 88 16 *
19:00 SSE 11 gust 16 Sunny 16 101.1 19 81 16 *
18:00 SSE 11 gust 17 Sunny 16 101.0 21 75 16 25
17:00 S 12 gust 21 Sunny 16 101.0 22 71 16 26
16:00 S 15 gust 20 Sunny 16 101.0 23 69 17 28
15:00 SSE 14 gust 19 Sunny 16 101.0 23 67 17 28
14:00 SSE 13 Mainly Sunny 16 101.0 24 65 17 29
13:00 SSE 10 gust 16 Partly Cloudy 16 101.0 24 62 17 29
12:00 SSE 9 Mainly Sunny 16 101.0 24 51 14 28
11:00 SSW 7 Mostly Cloudy 16 101.0 22 62 15 26
10:00 SSW 3 Mostly Cloudy 16 101.0 20 70 15 *
 
Map of Atlantic - Newfoundland marine weather areas Southwestern Grand Banks - 44138 Banquereau - 44139 Tail of the Bank - 44140 Nickerson Bank - 44251 Northeast Burgeo Bank - 44255 Blanc-Sablon Airport Cap Whittle Chevery Natashquan Airport Heath Point Miscou Island Grand Étang Ingonish Beach North Mountain St.Paul Island J.A. Douglas McCurdy Sydney Airport Charlottetown Airport East Point North Cape Argentia Bonavista Burgeo Cape Race Corner Brook Daniel's Harbour Englee Ferolle Point La Scie Port aux Basques Rocky Harbour Sagona Island St. Anthony Airport St. John's Int'l Airport St. Lawrence Stephenville Airport Twillingate Winterland Wreckhouse Cartwright Airport Mary's Harbour Grates Cove Pool's Island Marticot Island Long Pond Îles de la Madeleine Airport
Legend: buoyBuoy land stationLand Station